Time;durP1;ratioP1;P1;durP2;ratioP2;P2;SDS_P1;SDS_P2;PMS_P1;PMS_P2;Temp;Humidity;BMP_temperature;BMP_pressure;BME280_temperature;BME280_humidity;BME280_pressure;Samples;Min_cycle;Max_cycle;Signal;HPM_P1;HPM_P2
2021/03/05 00:02:04;;;;;;;;;;;;;;;;;;5079438;28;1398;-68
2021/03/05 00:04:29;;;;;;;;;;;;;;;;;;5114473;28;945;-66
2021/03/05 00:06:55;;;;;;;;;;;;;;;;;;5114476;28;1357;-68
2021/03/05 00:09:20;;;;;;;;;;;;;;;;;;5114479;28;951;-67
2021/03/05 00:11:45;;;;;;;;;;;;;;;;;;5114468;28;1027;-67
2021/03/05 00:14:10;;;;;;;;;;;;;;;;;;5114020;28;1947;-68
2021/03/05 00:16:36;;;;;;;;;;;;;;;;;;5114438;28;1388;-66
2021/03/05 00:19:01;;;;;;;;;;;;;;;;;;5114261;28;952;-66
2021/03/05 00:21:26;;;;;;;;;;;;;;;;;;5114367;28;813;-67
2021/03/05 00:23:52;;;;;;;;;;;;;;;;;;5095912;28;1336;-67
2021/03/05 00:26:17;;;;;;;;;;;;;;;;;;5114358;28;1325;-67
2021/03/05 00:28:42;;;;;;;;;;;;;;;;;;5096084;28;1495;-67
2021/03/05 00:31:07;;;;;;;;;;;;;;;;;;5114305;28;920;-66
2021/03/05 00:33:32;;;;;;;;;;;;;;;;;;5114097;28;1922;-71
2021/03/05 00:35:58;;;;;;;;;;;;;;;;;;5097848;28;1346;-67
2021/03/05 00:38:23;;;;;;;;;;;;;;;;;;5118661;28;809;-70
2021/03/05 00:40:49;;;;;;;;;;;;;;;;;;5118478;28;801;-67
2021/03/05 00:43:14;;;;;;;;;;;;;;;;;;5118228;28;872;-68
2021/03/05 00:45:39;;;;;;;;;;;;;;;;;;5099891;28;1361;-68
2021/03/05 00:48:04;;;;;;;;;;;;;;;;;;5118261;28;963;-68
2021/03/05 00:50:30;;;;;;;;;;;;;;;;;;5118168;28;805;-66
2021/03/05 00:52:55;;;;;;;;;;;;;;;;;;5099641;28;1959;-67
2021/03/05 00:55:20;;;;;;;;;;;;;;;;;;5117995;28;1289;-67
2021/03/05 00:57:45;;;;;;;;;;;;;;;;;;5099630;28;948;-66
2021/03/05 01:00:12;;;;;;;;;;;;;;;;;;5100166;28;980;-68
2021/03/05 01:02:37;;;;;;;;;;;;;;;;;;5118373;28;947;-67
2021/03/05 01:05:04;;;;;;;;;;;;;;;;;;5118592;28;797;-67
2021/03/05 01:07:30;;;;;;;;;;;;;;;;;;5100079;28;1475;-67
2021/03/05 01:09:55;;;;;;;;;;;;;;;;;;5099868;28;2636;-69
2021/03/05 01:12:21;;;;;;;;;;;;;;;;;;5118304;28;1901;-68
2021/03/05 01:14:46;;;;;;;;;;;;;;;;;;5100212;28;1549;-69
2021/03/05 01:17:11;;;;;;;;;;;;;;;;;;5118261;28;1325;-67
2021/03/05 01:19:37;;;;;;;;;;;;;;;;;;5118244;28;1075;-68
2021/03/05 01:22:02;;;;;;;;;;;;;;;;;;5118031;28;932;-68
2021/03/05 01:24:28;;;;;;;;;;;;;;;;;;5099735;28;972;-68
2021/03/05 01:26:53;;;;;;;;;;;;;;;;;;5118029;28;1282;-68
2021/03/05 01:29:18;;;;;;;;;;;;;;;;;;5100121;28;880;-68
2021/03/05 01:31:43;;;;;;;;;;;;;;;;;;5118305;28;860;-67
2021/03/05 01:34:08;;;;;;;;;;;;;;;;;;5117731;28;1955;-68
2021/03/05 01:36:34;;;;;;;;;;;;;;;;;;5117619;28;1372;-69
2021/03/05 01:38:59;;;;;;;;;;;;;;;;;;5083067;28;873;-67
2021/03/05 01:41:24;;;;;;;;;;;;;;;;;;5117921;28;972;-69
2021/03/05 01:43:50;;;;;;;;;;;;;;;;;;5099641;28;1348;-68
2021/03/05 01:46:17;;;;;;;;;;;;;;;;;;5117619;28;1301;-68
2021/03/05 01:48:42;;;;;;;;;;;;;;;;;;5117086;28;863;-68
2021/03/05 01:51:12;;;;;;;;;;;;;;;;;;5099329;28;833;-67
2021/03/05 01:53:38;;;;;;;;;;;;;;;;;;5099153;28;1902;-69
2021/03/05 01:56:04;;;;;;;;;;;;;;;;;;5117494;28;1408;-69
2021/03/05 01:58:29;;;;;;;;;;;;;;;;;;5117454;28;1065;-69
2021/03/05 02:01:08;;;;;;;;;;;;;;;;;;5117541;28;904;-69
2021/03/05 02:03:33;;;;;;;;;;;;;;;;;;5117054;28;1189;-67
2021/03/05 02:05:59;;;;;;;;;;;;;;;;;;5117323;28;1352;-69
2021/03/05 02:08:24;;;;;;;;;;;;;;;;;;5117682;28;846;-68
2021/03/05 02:10:50;;;;;;;;;;;;;;;;;;5117446;28;1003;-67
2021/03/05 02:13:15;;;;;;;;;;;;;;;;;;5116815;28;1897;-68
2021/03/05 02:15:41;;;;;;;;;;;;;;;;;;5117176;28;1384;-68
2021/03/05 02:18:09;;;;;;;;;;;;;;;;;;5117036;28;1030;-67
2021/03/05 02:20:39;;;;;;;;;;;;;;;;;;5117152;28;825;-68
2021/03/05 02:23:19;;;;;;;;;;;;;;;;;;5098562;28;1203;-68
2021/03/05 02:25:56;;;;;;;;;;;;;;;;;;5116657;28;1342;-68
2021/03/05 02:28:22;;;;;;;;;;;;;;;;;;5098974;28;1314;-69
2021/03/05 02:31:10;;;;;;;;;;;;;;;;;;5116820;28;983;-69
2021/03/05 02:33:43;;;;;;;;;;;;;;;;;;5116208;28;1906;-67
2021/03/05 02:36:10;;;;;;;;;;;;;;;;;;5116541;28;1921;-68
2021/03/05 02:38:36;;;;;;;;;;;;;;;;;;5098381;28;921;-67
2021/03/05 02:41:04;;;;;;;;;;;;;;;;;;5116682;28;872;-69
2021/03/05 02:43:30;;;;;;;;;;;;;;;;;;5116662;28;1011;-70
2021/03/05 02:45:57;;;;;;;;;;;;;;;;;;5098359;28;1412;-69
2021/03/05 02:48:25;;;;;;;;;;;;;;;;;;5098619;28;878;-68
2021/03/05 02:50:52;;;;;;;;;;;;;;;;;;5098341;28;1420;-69
2021/03/05 02:53:18;;;;;;;;;;;;;;;;;;5097968;28;1898;-67
2021/03/05 02:55:46;;;;;;;;;;;;;;;;;;5098152;28;1448;-69
2021/03/05 02:58:13;;;;;;;;;;;;;;;;;;5097771;28;1559;-70
2021/03/05 03:00:39;;;;;;;;;;;;;;;;;;5097194;28;1555;-70
2021/03/05 03:03:05;;;;;;;;;;;;;;;;;;5116029;28;889;-69
2021/03/05 03:05:30;;;;;;;;;;;;;;;;;;5098196;28;1404;-68
2021/03/05 03:07:56;;;;;;;;;;;;;;;;;;5097880;28;829;-67
2021/03/05 03:10:22;;;;;;;;;;;;;;;;;;5097913;28;814;-67
2021/03/05 03:12:51;;;;;;;;;;;;;;;;;;5115644;28;1894;-67
2021/03/05 03:15:17;;;;;;;;;;;;;;;;;;5115964;28;1415;-69
2021/03/05 03:17:43;;;;;;;;;;;;;;;;;;5097540;28;1301;-69
2021/03/05 03:20:17;;;;;;;;;;;;;;;;;;5071892;28;1644;-66
2021/03/05 03:22:42;;;;;;;;;;;;;;;;;;5070796;28;1292;-68
2021/03/05 03:25:08;;;;;;;;;;;;;;;;;;5070497;28;1412;-68
2021/03/05 03:27:33;;;;;;;;;;;;;;;;;;5070499;28;973;-69
2021/03/05 03:29:58;;;;;;;;;;;;;;;;;;5071715;28;970;-68
2021/03/05 03:32:24;;;;;;;;;;;;;;;;;;5070156;28;1428;-67
2021/03/05 03:34:50;;;;;;;;;;;;;;;;;;5071651;28;944;-67
2021/03/05 03:37:15;;;;;;;;;;;;;;;;;;5071565;28;1349;-67
2021/03/05 03:39:40;;;;;;;;;;;;;;;;;;5071457;28;1906;-68
2021/03/05 03:42:06;;;;;;;;;;;;;;;;;;5071410;28;833;-67
2021/03/05 03:44:31;;;;;;;;;;;;;;;;;;5071324;28;936;-66
2021/03/05 03:46:58;;;;;;;;;;;;;;;;;;5071353;28;1302;-68
2021/03/05 03:49:32;;;;;;;;;;;;;;;;;;5070180;28;880;-68
2021/03/05 03:52:09;;;;;;;;;;;;;;;;;;5071168;28;825;-66
2021/03/05 03:54:36;;;;;;;;;;;;;;;;;;5071218;28;921;-66
2021/03/05 03:57:02;;;;;;;;;;;;;;;;;;5070921;28;1396;-66
2021/03/05 03:59:30;;;;;;;;;;;;;;;;;;5069925;28;1906;-66
2021/03/05 04:01:56;;;;;;;;;;;;;;;;;;5070907;28;1002;-66
2021/03/05 04:04:23;;;;;;;;;;;;;;;;;;5071250;28;809;-68
2021/03/05 04:06:51;;;;;;;;;;;;;;;;;;5069807;28;1408;-68
2021/03/05 04:09:17;;;;;;;;;;;;;;;;;;5071170;28;885;-69
2021/03/05 04:11:42;;;;;;;;;;;;;;;;;;5070866;28;920;-66
2021/03/05 04:14:08;;;;;;;;;;;;;;;;;;5070753;28;893;-66
2021/03/05 04:16:34;;;;;;;;;;;;;;;;;;5069459;28;1345;-67
2021/03/05 04:18:59;;;;;;;;;;;;;;;;;;5080549;28;1898;-66
2021/03/05 04:21:37;;;;;;;;;;;;;;;;;;5072826;28;861;-66
2021/03/05 04:24:03;;;;;;;;;;;;;;;;;;5056304;28;1148;-67
2021/03/05 04:26:28;;;;;;;;;;;;;;;;;;5090784;28;1337;-68
2021/03/05 04:28:53;;;;;;;;;;;;;;;;;;5091073;28;818;-67
2021/03/05 04:31:19;;;;;;;;;;;;;;;;;;5078851;28;1082;-67
2021/03/05 04:33:44;;;;;;;;;;;;;;;;;;5059124;28;1384;-68
2021/03/05 04:36:09;;;;;;;;;;;;;;;;;;5059262;28;1341;-68
2021/03/05 04:38:34;;;;;;;;;;;;;;;;;;5059456;28;1906;-66
2021/03/05 04:41:00;;;;;;;;;;;;;;;;;;5077150;28;846;-67
2021/03/05 04:43:25;;;;;;;;;;;;;;;;;;5076726;28;901;-68
2021/03/05 04:45:50;;;;;;;;;;;;;;;;;;5076950;28;1381;-68
2021/03/05 04:48:16;;;;;;;;;;;;;;;;;;5059034;28;1395;-66
2021/03/05 04:50:41;;;;;;;;;;;;;;;;;;5076996;28;881;-68
2021/03/05 04:53:06;;;;;;;;;;;;;;;;;;5058640;28;1247;-67
2021/03/05 04:55:32;;;;;;;;;;;;;;;;;;5058721;28;1388;-67
2021/03/05 04:57:57;;;;;;;;;;;;;;;;;;5076900;28;1889;-66
2021/03/05 05:00:22;;;;;;;;;;;;;;;;;;5076608;28;897;-67
2021/03/05 05:02:48;;;;;;;;;;;;;;;;;;5076685;28;813;-68
2021/03/05 05:05:13;;;;;;;;;;;;;;;;;;5076725;28;1416;-67
2021/03/05 05:07:39;;;;;;;;;;;;;;;;;;5058699;28;1394;-68
2021/03/05 05:10:04;;;;;;;;;;;;;;;;;;5076748;28;854;-67
2021/03/05 05:12:29;;;;;;;;;;;;;;;;;;5058623;28;957;-68
2021/03/05 05:14:55;;;;;;;;;;;;;;;;;;5076320;28;987;-67
2021/03/05 05:17:20;;;;;;;;;;;;;;;;;;5058534;28;1586;-67
2021/03/05 05:19:45;;;;;;;;;;;;;;;;;;5058290;28;1890;-66
2021/03/05 05:22:10;;;;;;;;;;;;;;;;;;5058571;28;826;-67
2021/03/05 05:24:37;;;;;;;;;;;;;;;;;;5058212;28;1334;-68
2021/03/05 05:27:03;;;;;;;;;;;;;;;;;;5076231;28;1301;-66
2021/03/05 05:29:28;;;;;;;;;;;;;;;;;;5058143;28;1333;-68
2021/03/05 05:31:53;;;;;;;;;;;;;;;;;;5058114;28;829;-67
2021/03/05 05:34:18;;;;;;;;;;;;;;;;;;5041755;28;1168;-67
2021/03/05 05:36:43;;;;;;;;;;;;;;;;;;5057987;28;1518;-67
2021/03/05 05:39:09;;;;;;;;;;;;;;;;;;5075877;28;1963;-67
2021/03/05 05:41:38;;;;;;;;;;;;;;;;;;5075199;28;992;-67
2021/03/05 05:44:04;;;;;;;;;;;;;;;;;;5075628;28;877;-67
2021/03/05 05:46:29;;;;;;;;;;;;;;;;;;5075683;28;1290;-67
2021/03/05 05:48:54;;;;;;;;;;;;;;;;;;5075820;28;959;-68
2021/03/05 05:51:24;;;;;;;;;;;;;;;;;;5075612;28;829;-68
2021/03/05 05:53:50;;;;;;;;;;;;;;;;;;5075484;28;883;-68
2021/03/05 05:56:16;;;;;;;;;;;;;;;;;;5057618;28;1333;-68
2021/03/05 05:58:41;;;;;;;;;;;;;;;;;;5057649;28;1901;-67
2021/03/05 06:01:07;;;;;;;;;;;;;;;;;;5075388;28;813;-66
2021/03/05 06:03:32;;;;;;;;;;;;;;;;;;5075258;28;906;-67
2021/03/05 06:05:57;;;;;;;;;;;;;;;;;;5075421;28;1364;-68
2021/03/05 06:08:23;;;;;;;;;;;;;;;;;;5075387;28;829;-68
2021/03/05 06:10:49;;;;;;;;;;;;;;;;;;5075497;28;889;-67
2021/03/05 06:13:15;;;;;;;;;;;;;;;;;;5075109;28;817;-67
2021/03/05 06:15:40;;;;;;;;;;;;;;;;;;5075076;28;1285;-65
2021/03/05 06:18:06;;;;;;;;;;;;;;;;;;5075097;28;1902;-66
2021/03/05 06:20:44;;;;;;;;;;;;;;;;;;5075293;28;886;-67
2021/03/05 06:23:13;;;;;;;;;;;;;;;;;;5057084;28;1604;-67
2021/03/05 06:25:39;;;;;;;;;;;;;;;;;;5057076;28;1338;-66
2021/03/05 06:28:13;;;;;;;;;;;;;;;;;;5066230;28;888;-66
2021/03/05 06:30:39;;;;;;;;;;;;;;;;;;5072304;28;957;-66
2021/03/05 06:33:20;;;;;;;;;;;;;;;;;;5056800;28;1371;-68
2021/03/05 06:35:45;;;;;;;;;;;;;;;;;;5074728;28;1369;-67
2021/03/05 06:38:10;;;;;;;;;;;;;;;;;;5074793;28;1959;-65
2021/03/05 06:40:35;;;;;;;;;;;;;;;;;;5074854;28;971;-67
2021/03/05 06:43:00;;;;;;;;;;;;;;;;;;5056840;28;1216;-66
2021/03/05 06:45:34;;;;;;;;;;;;;;;;;;5074672;28;1408;-67
2021/03/05 06:48:00;;;;;;;;;;;;;;;;;;5074626;28;931;-67
2021/03/05 06:50:25;;;;;;;;;;;;;;;;;;5056853;28;833;-66
2021/03/05 06:52:50;;;;;;;;;;;;;;;;;;5074637;28;872;-65
2021/03/05 06:55:15;;;;;;;;;;;;;;;;;;5074624;28;1289;-66
2021/03/05 06:57:41;;;;;;;;;;;;;;;;;;5056788;28;1032;-67
2021/03/05 07:00:16;;;;;;;;;;;;;;;;;;5056587;28;1897;-67
2021/03/05 07:02:41;;;;;;;;;;;;;;;;;;5074452;28;809;-66
2021/03/05 07:05:07;;;;;;;;;;;;;;;;;;5056540;28;1289;-65
2021/03/05 07:07:41;;;;;;;;;;;;;;;;;;5056400;28;917;-65
2021/03/05 07:10:06;;;;;;;;;;;;;;;;;;5074529;28;833;-65
2021/03/05 07:12:31;;;;;;;;;;;;;;;;;;5074391;28;865;-66
2021/03/05 07:14:59;;;;;;;;;;;;;;;;;;5074403;28;829;-66
2021/03/05 07:17:25;;;;;;;;;;;;;;;;;;5074302;28;1406;-66
2021/03/05 07:19:51;;;;;;;;;;;;;;;;;;5056325;28;1910;-65
2021/03/05 07:22:17;;;;;;;;;;;;;;;;;;5074334;28;955;-66
2021/03/05 07:24:42;;;;;;;;;;;;;;;;;;5040116;28;854;-65
2021/03/05 07:27:09;;;;;;;;;;;;;;;;;;5056296;28;1640;-66
2021/03/05 07:29:44;;;;;;;;;;;;;;;;;;5056177;28;928;-65
2021/03/05 07:32:30;;;;;;;;;;;;;;;;;;5074448;28;869;-66
2021/03/05 07:34:56;;;;;;;;;;;;;;;;;;5063374;28;1201;-65
2021/03/05 07:37:23;;;;;;;;;;;;;;;;;;5074072;28;1325;-66
2021/03/05 07:39:49;;;;;;;;;;;;;;;;;;5074175;28;1897;-66
2021/03/05 07:42:14;;;;;;;;;;;;;;;;;;5074051;28;845;-66
2021/03/05 07:44:39;;;;;;;;;;;;;;;;;;5074225;28;888;-66
2021/03/05 07:47:13;;;;;;;;;;;;;;;;;;5056021;28;1330;-67
2021/03/05 07:49:39;;;;;;;;;;;;;;;;;;5056232;28;1383;-66
2021/03/05 07:52:05;;;;;;;;;;;;;;;;;;5073947;28;865;-67
2021/03/05 07:54:39;;;;;;;;;;;;;;;;;;5056161;28;1539;-66
2021/03/05 07:57:05;;;;;;;;;;;;;;;;;;5073797;28;1396;-67
2021/03/05 07:59:39;;;;;;;;;;;;;;;;;;5074264;28;1890;-67
2021/03/05 08:02:05;;;;;;;;;;;;;;;;;;5055945;28;825;-67
2021/03/05 08:04:48;;;;;;;;;;;;;;;;;;5055759;28;873;-67
2021/03/05 08:07:14;;;;;;;;;;;;;;;;;;5077682;28;1433;-66
2021/03/05 08:09:40;;;;;;;;;;;;;;;;;;5077742;28;904;-66
2021/03/05 08:12:25;;;;;;;;;;;;;;;;;;5077405;28;817;-68
2021/03/05 08:14:51;;;;;;;;;;;;;;;;;;5077685;28;960;-66
2021/03/05 08:17:32;;;;;;;;;;;;;;;;;;5059410;28;1436;-67
2021/03/05 08:19:57;;;;;;;;;;;;;;;;;;5077529;28;1961;-67
2021/03/05 08:22:23;;;;;;;;;;;;;;;;;;5059439;28;849;-67
2021/03/05 08:24:48;;;;;;;;;;;;;;;;;;5077383;28;912;-65
2021/03/05 08:27:34;;;;;;;;;;;;;;;;;;5077245;28;1353;-66
2021/03/05 08:30:08;;;;;;;;;;;;;;;;;;5059558;28;873;-65
2021/03/05 08:32:34;;;;;;;;;;;;;;;;;;5059300;28;1361;-65
2021/03/05 08:35:09;;;;;;;;;;;;;;;;;;5077511;28;809;-65
2021/03/05 08:37:35;;;;;;;;;;;;;;;;;;5077269;28;900;-65
2021/03/05 08:40:10;;;;;;;;;;;;;;;;;;5058932;28;1886;-66
2021/03/05 08:42:35;;;;;;;;;;;;;;;;;;5076848;28;868;-67
2021/03/05 08:45:07;;;;;;;;;;;;;;;;;;5077183;28;877;-66
2021/03/05 08:47:34;;;;;;;;;;;;;;;;;;5076976;28;868;-66
2021/03/05 08:49:59;;;;;;;;;;;;;;;;;;5077169;28;817;-66
2021/03/05 08:52:25;;;;;;;;;;;;;;;;;;5058779;28;1367;-66
2021/03/05 08:54:50;;;;;;;;;;;;;;;;;;5076816;28;943;-66
2021/03/05 08:57:15;;;;;;;;;;;;;;;;;;5076918;28;1436;-66
2021/03/05 08:59:41;;;;;;;;;;;;;;;;;;5076763;28;1963;-66
2021/03/05 09:02:12;;;;;;;;;;;;;;;;;;5058430;28;1195;-66
2021/03/05 09:04:41;;;;;;;;;;;;;;;;;;5058772;28;1183;-66
2021/03/05 09:07:10;;;;;;;;;;;;;;;;;;5076628;28;1298;-66
2021/03/05 09:09:36;;;;;;;;;;;;;;;;;;5058264;28;1029;-66
2021/03/05 09:12:13;;;;;;;;;;;;;;;;;;5076432;28;826;-65
2021/03/05 09:14:39;;;;;;;;;;;;;;;;;;5058543;28;905;-66
2021/03/05 09:17:05;;;;;;;;;;;;;;;;;;5058187;28;1345;-67
2021/03/05 09:19:31;;;;;;;;;;;;;;;;;;5058277;28;1961;-66
2021/03/05 09:22:03;;;;;;;;;;;;;;;;;;5058412;28;1479;-66
2021/03/05 09:24:44;;;;;;;;;;;;;;;;;;5076536;28;806;-66
2021/03/05 09:27:29;;;;;;;;;;;;;;;;;;5058574;28;1545;-65
2021/03/05 09:29:54;;;;;;;;;;;;;;;;;;5058209;28;1406;-66
2021/03/05 09:32:20;;;;;;;;;;;;;;;;;;5076130;28;880;-67
2021/03/05 09:34:52;;;;;;;;;;;;;;;;;;5058316;28;1231;-66
2021/03/05 09:37:18;;;;;;;;;;;;;;;;;;5058184;28;1384;-66
2021/03/05 09:39:44;;;;;;;;;;;;;;;;;;5075906;28;1969;-67
2021/03/05 09:42:10;;;;;;;;;;;;;;;;;;5057864;28;807;-66
2021/03/05 09:44:45;;;;;;;;;;;;;;;;;;5057966;28;1540;-66
2021/03/05 09:47:11;;;;;;;;;;;;;;;;;;5075701;28;1317;-66
2021/03/05 09:49:38;;;;;;;;;;;;;;;;;;5075628;28;797;-66
2021/03/05 09:52:03;;;;;;;;;;;;;;;;;;5057702;28;1215;-66
2021/03/05 09:54:35;;;;;;;;;;;;;;;;;;5057590;28;877;-67
2021/03/05 09:57:00;;;;;;;;;;;;;;;;;;5075640;28;1361;-66
2021/03/05 09:59:39;;;;;;;;;;;;;;;;;;5063440;28;1898;-67
2021/03/05 10:02:04;;;;;;;;;;;;;;;;;;5055475;28;905;-66
2021/03/05 10:04:29;;;;;;;;;;;;;;;;;;5037695;28;937;-65
2021/03/05 10:06:55;;;;;;;;;;;;;;;;;;5037452;28;1389;-65
2021/03/05 10:09:20;;;;;;;;;;;;;;;;;;5055417;28;893;-66
2021/03/05 10:11:45;;;;;;;;;;;;;;;;;;5055326;28;817;-67
2021/03/05 10:14:28;;;;;;;;;;;;;;;;;;5067969;28;2317;-67
2021/03/05 10:16:53;;;;;;;;;;;;;;;;;;5057358;28;1341;-64
2021/03/05 10:19:21;;;;;;;;;;;;;;;;;;5057178;28;1910;-66
2021/03/05 10:21:46;;;;;;;;;;;;;;;;;;5075353;28;889;-67
2021/03/05 10:24:19;;;;;;;;;;;;;;;;;;5075028;28;852;-66
2021/03/05 10:29:44;;;;;;;;;;;;;;;;;;5075035;28;881;-68
2021/03/05 10:32:29;;;;;;;;;;;;;;;;;;5074942;28;937;-67
2021/03/05 10:35:05;;;;;;;;;;;;;;;;;;5056483;28;1978;-68
2021/03/05 10:37:31;;;;;;;;;;;;;;;;;;5063142;28;1731;-67
2021/03/05 10:39:56;;;;;;;;;;;;;;;;;;5054978;28;1928;-68
2021/03/05 10:42:24;;;;;;;;;;;;;;;;;;5036855;28;833;-66
2021/03/05 10:44:50;;;;;;;;;;;;;;;;;;5054754;28;1593;-67
2021/03/05 10:47:17;;;;;;;;;;;;;;;;;;5037157;28;1471;-67
2021/03/05 10:49:42;;;;;;;;;;;;;;;;;;5054837;28;954;-68
2021/03/05 10:52:11;;;;;;;;;;;;;;;;;;5036662;28;967;-68
2021/03/05 10:54:37;;;;;;;;;;;;;;;;;;5036595;28;1564;-68
2021/03/05 10:57:02;;;;;;;;;;;;;;;;;;5054235;28;1346;-67
2021/03/05 10:59:28;;;;;;;;;;;;;;;;;;5064922;28;2085;-67
2021/03/05 11:01:54;;;;;;;;;;;;;;;;;;5056451;28;1421;-69
2021/03/05 11:04:19;;;;;;;;;;;;;;;;;;5074532;28;830;-67
2021/03/05 11:06:46;;;;;;;;;;;;;;;;;;5047879;28;1934;-67
2021/03/05 11:09:12;;;;;;;;;;;;;;;;;;5056431;28;838;-68
2021/03/05 11:11:37;;;;;;;;;;;;;;;;;;5054228;28;881;-69
2021/03/05 11:14:03;;;;;;;;;;;;;;;;;;5054287;28;830;-69
2021/03/05 11:16:28;;;;;;;;;;;;;;;;;;5054313;28;1286;-69
2021/03/05 11:18:53;;;;;;;;;;;;;;;;;;5053998;28;1882;-68
2021/03/05 11:21:19;;;;;;;;;;;;;;;;;;5036630;28;859;-68
2021/03/05 11:23:44;;;;;;;;;;;;;;;;;;5054267;28;798;-67
2021/03/05 11:26:10;;;;;;;;;;;;;;;;;;5036425;28;1369;-68
2021/03/05 11:28:35;;;;;;;;;;;;;;;;;;5054362;28;871;-68
2021/03/05 11:31:00;;;;;;;;;;;;;;;;;;5036208;28;809;-69
2021/03/05 11:33:26;;;;;;;;;;;;;;;;;;5036354;28;1334;-69
2021/03/05 11:35:51;;;;;;;;;;;;;;;;;;5054199;28;1298;-68
2021/03/05 11:38:16;;;;;;;;;;;;;;;;;;5054172;28;1894;-69
2021/03/05 11:40:42;;;;;;;;;;;;;;;;;;5055696;28;877;-69
2021/03/05 11:43:07;;;;;;;;;;;;;;;;;;5058024;28;809;-69
2021/03/05 11:45:33;;;;;;;;;;;;;;;;;;5057965;28;1396;-69
2021/03/05 11:47:58;;;;;;;;;;;;;;;;;;5058017;28;936;-69
2021/03/05 11:50:23;;;;;;;;;;;;;;;;;;5040300;28;932;-69
2021/03/05 11:52:48;;;;;;;;;;;;;;;;;;5040052;28;865;-69
2021/03/05 11:55:14;;;;;;;;;;;;;;;;;;5039947;28;1387;-68
2021/03/05 11:57:39;;;;;;;;;;;;;;;;;;5040130;28;821;-68
2021/03/05 12:00:07;;;;;;;;;;;;;;;;;;5039982;28;1953;-69
2021/03/05 12:02:32;;;;;;;;;;;;;;;;;;5057548;28;1004;-68
2021/03/05 12:04:57;;;;;;;;;;;;;;;;;;5040055;28;885;-67
2021/03/05 12:07:22;;;;;;;;;;;;;;;;;;5040179;28;1389;-69
2021/03/05 12:09:48;;;;;;;;;;;;;;;;;;5057717;28;861;-68
2021/03/05 12:12:13;;;;;;;;;;;;;;;;;;5057618;28;968;-68
2021/03/05 12:14:38;;;;;;;;;;;;;;;;;;5057418;28;905;-68
2021/03/05 12:17:05;;;;;;;;;;;;;;;;;;5039770;28;1417;-68
2021/03/05 12:19:30;;;;;;;;;;;;;;;;;;5057448;28;1910;-68
2021/03/05 12:21:55;;;;;;;;;;;;;;;;;;5057385;28;923;-68
2021/03/05 12:24:21;;;;;;;;;;;;;;;;;;5057342;28;846;-68
2021/03/05 12:26:46;;;;;;;;;;;;;;;;;;5057392;28;1310;-68
2021/03/05 12:29:11;;;;;;;;;;;;;;;;;;5039445;28;1223;-68
2021/03/05 12:31:36;;;;;;;;;;;;;;;;;;5039824;28;865;-68
2021/03/05 12:34:02;;;;;;;;;;;;;;;;;;5039303;28;1679;-69
2021/03/05 12:36:28;;;;;;;;;;;;;;;;;;5039141;28;1647;-68
2021/03/05 12:38:53;;;;;;;;;;;;;;;;;;5057035;28;1894;-68
2021/03/05 12:41:19;;;;;;;;;;;;;;;;;;5057158;28;975;-68
2021/03/05 12:43:44;;;;;;;;;;;;;;;;;;5039390;28;850;-68
2021/03/05 12:46:09;;;;;;;;;;;;;;;;;;5039324;28;1284;-68
2021/03/05 12:48:34;;;;;;;;;;;;;;;;;;5039042;28;1050;-69
2021/03/05 12:50:59;;;;;;;;;;;;;;;;;;5038680;28;996;-69
2021/03/05 12:53:25;;;;;;;;;;;;;;;;;;5038701;28;2378;-69
2021/03/05 12:55:50;;;;;;;;;;;;;;;;;;5056719;28;1278;-68
2021/03/05 12:58:15;;;;;;;;;;;;;;;;;;5056601;28;1902;-69
2021/03/05 13:00:40;;;;;;;;;;;;;;;;;;5056893;28;837;-68
2021/03/05 13:03:06;;;;;;;;;;;;;;;;;;5038650;28;818;-68
2021/03/05 13:05:31;;;;;;;;;;;;;;;;;;5038843;28;1313;-68
2021/03/05 13:07:56;;;;;;;;;;;;;;;;;;5038907;28;877;-67
2021/03/05 13:10:22;;;;;;;;;;;;;;;;;;5056658;28;1318;-68
2021/03/05 13:12:47;;;;;;;;;;;;;;;;;;5056435;28;896;-68
2021/03/05 13:15:13;;;;;;;;;;;;;;;;;;5056511;28;1408;-69
2021/03/05 13:17:38;;;;;;;;;;;;;;;;;;5038262;28;1208;-68
2021/03/05 13:20:04;;;;;;;;;;;;;;;;;;5056308;28;1960;-68
2021/03/05 13:22:30;;;;;;;;;;;;;;;;;;5038503;28;909;-68
2021/03/05 13:24:55;;;;;;;;;;;;;;;;;;5038511;28;881;-68
2021/03/05 13:27:20;;;;;;;;;;;;;;;;;;5056181;28;1448;-68
2021/03/05 13:29:46;;;;;;;;;;;;;;;;;;5038211;28;1498;-69
2021/03/05 13:32:11;;;;;;;;;;;;;;;;;;5056161;28;900;-68
2021/03/05 13:34:36;;;;;;;;;;;;;;;;;;5038741;28;853;-69
2021/03/05 13:37:01;;;;;;;;;;;;;;;;;;5038195;28;1452;-67
2021/03/05 13:39:27;;;;;;;;;;;;;;;;;;5037932;28;1957;-68
2021/03/05 13:41:52;;;;;;;;;;;;;;;;;;5056326;28;867;-69
2021/03/05 13:44:18;;;;;;;;;;;;;;;;;;5038201;28;822;-69
2021/03/05 13:46:43;;;;;;;;;;;;;;;;;;5055682;28;1306;-68
2021/03/05 13:49:08;;;;;;;;;;;;;;;;;;5038160;28;837;-68
2021/03/05 13:51:33;;;;;;;;;;;;;;;;;;5055868;28;917;-68
2021/03/05 13:53:59;;;;;;;;;;;;;;;;;;5055705;28;865;-69
2021/03/05 13:56:24;;;;;;;;;;;;;;;;;;5055728;28;1306;-68
2021/03/05 13:58:49;;;;;;;;;;;;;;;;;;5055616;28;1967;-69
2021/03/05 14:01:14;;;;;;;;;;;;;;;;;;5037584;28;1204;-68
2021/03/05 14:03:40;;;;;;;;;;;;;;;;;;5054282;28;944;-69
2021/03/05 14:06:05;;;;;;;;;;;;;;;;;;5055656;28;1290;-69
2021/03/05 14:08:30;;;;;;;;;;;;;;;;;;5055434;28;883;-68
2021/03/05 14:10:55;;;;;;;;;;;;;;;;;;5037653;28;889;-69
2021/03/05 14:13:21;;;;;;;;;;;;;;;;;;5055120;28;791;-68
2021/03/05 14:15:46;;;;;;;;;;;;;;;;;;5055388;28;1346;-68
2021/03/05 14:18:12;;;;;;;;;;;;;;;;;;5055070;28;1902;-68
2021/03/05 14:20:37;;;;;;;;;;;;;;;;;;5055372;28;873;-68
2021/03/05 14:23:03;;;;;;;;;;;;;;;;;;5037160;28;826;-68
2021/03/05 14:25:28;;;;;;;;;;;;;;;;;;5037199;28;2340;-68
2021/03/05 14:27:53;;;;;;;;;;;;;;;;;;5037500;28;1723;-68
2021/03/05 14:30:19;;;;;;;;;;;;;;;;;;5055147;28;902;-69
2021/03/05 14:32:47;;;;;;;;;;;;;;;;;;5054979;28;830;-69
2021/03/05 14:35:14;;;;;;;;;;;;;;;;;;5037003;28;1349;-67
2021/03/05 14:37:39;;;;;;;;;;;;;;;;;;5036913;28;921;-68
2021/03/05 14:40:05;;;;;;;;;;;;;;;;;;5054838;28;1949;-69
2021/03/05 14:42:30;;;;;;;;;;;;;;;;;;5037228;28;1567;-69
2021/03/05 14:44:55;;;;;;;;;;;;;;;;;;5037179;28;814;-68
2021/03/05 14:47:20;;;;;;;;;;;;;;;;;;5054732;28;1325;-68
2021/03/05 14:49:46;;;;;;;;;;;;;;;;;;5054887;28;948;-69
2021/03/05 14:52:11;;;;;;;;;;;;;;;;;;5054629;28;802;-68
2021/03/05 14:54:36;;;;;;;;;;;;;;;;;;5054675;28;1019;-68
2021/03/05 14:57:02;;;;;;;;;;;;;;;;;;5036805;28;1425;-68
2021/03/05 14:59:27;;;;;;;;;;;;;;;;;;5036773;28;1948;-68
2021/03/05 15:01:52;;;;;;;;;;;;;;;;;;5037162;28;1124;-69
2021/03/05 15:04:18;;;;;;;;;;;;;;;;;;5054199;28;791;-68
2021/03/05 15:06:43;;;;;;;;;;;;;;;;;;5054488;28;1341;-68
2021/03/05 15:09:09;;;;;;;;;;;;;;;;;;5054520;28;924;-68
2021/03/05 15:11:34;;;;;;;;;;;;;;;;;;5054504;28;885;-68
2021/03/05 15:13:59;;;;;;;;;;;;;;;;;;5036006;28;1498;-69
2021/03/05 15:16:25;;;;;;;;;;;;;;;;;;5054285;28;1322;-68
2021/03/05 15:18:51;;;;;;;;;;;;;;;;;;5036510;28;1902;-68
2021/03/05 15:21:16;;;;;;;;;;;;;;;;;;5036644;28;1663;-68
2021/03/05 15:23:41;;;;;;;;;;;;;;;;;;5053975;28;917;-68
2021/03/05 15:26:07;;;;;;;;;;;;;;;;;;5036503;28;1327;-69
2021/03/05 15:28:32;;;;;;;;;;;;;;;;;;5054474;28;865;-69
2021/03/05 15:30:58;;;;;;;;;;;;;;;;;;5054247;28;839;-68
2021/03/05 15:33:23;;;;;;;;;;;;;;;;;;5054010;28;984;-68
2021/03/05 15:35:48;;;;;;;;;;;;;;;;;;5036333;28;1337;-68
2021/03/05 15:38:13;;;;;;;;;;;;;;;;;;5054323;28;928;-68
2021/03/05 15:40:39;;;;;;;;;;;;;;;;;;5054233;28;864;-70
2021/03/05 15:43:04;;;;;;;;;;;;;;;;;;5054058;28;904;-68
2021/03/05 15:45:30;;;;;;;;;;;;;;;;;;5036261;28;1563;-68
2021/03/05 15:47:55;;;;;;;;;;;;;;;;;;5054290;28;850;-69
2021/03/05 15:50:20;;;;;;;;;;;;;;;;;;5054264;28;948;-68
2021/03/05 15:52:46;;;;;;;;;;;;;;;;;;5053935;28;891;-68
2021/03/05 15:55:12;;;;;;;;;;;;;;;;;;5036529;28;1310;-69
2021/03/05 15:57:37;;;;;;;;;;;;;;;;;;5053957;28;821;-68
2021/03/05 16:00:04;;;;;;;;;;;;;;;;;;5036006;28;1890;-69
2021/03/05 16:02:29;;;;;;;;;;;;;;;;;;5036048;28;1283;-68
2021/03/05 16:04:54;;;;;;;;;;;;;;;;;;5053903;28;780;-68
2021/03/05 16:07:19;;;;;;;;;;;;;;;;;;5053703;28;1424;-69
2021/03/05 16:09:45;;;;;;;;;;;;;;;;;;5053956;28;822;-68
2021/03/05 16:12:10;;;;;;;;;;;;;;;;;;5053738;28;896;-67
2021/03/05 16:14:35;;;;;;;;;;;;;;;;;;5036074;28;869;-67
2021/03/05 16:17:01;;;;;;;;;;;;;;;;;;5035746;28;1342;-68
2021/03/05 16:19:26;;;;;;;;;;;;;;;;;;5053705;28;1901;-67
2021/03/05 16:21:51;;;;;;;;;;;;;;;;;;5053851;28;877;-67
2021/03/05 16:24:17;;;;;;;;;;;;;;;;;;5053547;28;1062;-68
2021/03/05 16:26:44;;;;;;;;;;;;;;;;;;5055156;28;1477;-67
2021/03/05 16:29:09;;;;;;;;;;;;;;;;;;5039386;28;899;-69
2021/03/05 16:31:35;;;;;;;;;;;;;;;;;;5039301;28;1681;-68
2021/03/05 16:34:00;;;;;;;;;;;;;;;;;;5057206;28;891;-69
2021/03/05 16:36:25;;;;;;;;;;;;;;;;;;5057195;28;1404;-67
2021/03/05 16:38:50;;;;;;;;;;;;;;;;;;5057026;28;1961;-68
2021/03/05 16:41:16;;;;;;;;;;;;;;;;;;5039342;28;1683;-68
2021/03/05 16:43:41;;;;;;;;;;;;;;;;;;5056980;28;897;-69
2021/03/05 16:46:06;;;;;;;;;;;;;;;;;;5056788;28;1719;-69
2021/03/05 16:48:32;;;;;;;;;;;;;;;;;;5039038;28;799;-68
2021/03/05 16:50:57;;;;;;;;;;;;;;;;;;5039455;28;877;-68
2021/03/05 16:53:22;;;;;;;;;;;;;;;;;;5056871;28;948;-68
2021/03/05 16:55:47;;;;;;;;;;;;;;;;;;5038743;28;1464;-68
2021/03/05 16:58:13;;;;;;;;;;;;;;;;;;5056753;28;955;-68
2021/03/05 17:00:39;;;;;;;;;;;;;;;;;;5038767;28;1890;-68
2021/03/05 17:03:05;;;;;;;;;;;;;;;;;;5038866;28;862;-68
2021/03/05 17:05:30;;;;;;;;;;;;;;;;;;5056485;28;1281;-68
2021/03/05 17:07:56;;;;;;;;;;;;;;;;;;5038866;28;1197;-68
2021/03/05 17:10:21;;;;;;;;;;;;;;;;;;5056593;28;857;-68